createdAt,value
2022-08-11T00:01:50.351Z,101120.16
2022-08-11T00:04:18.367Z,101181.84
2022-08-11T00:06:47.778Z,101180.00
2022-08-11T00:09:18.338Z,101137.78
2022-08-11T00:11:47.444Z,101129.69
2022-08-11T00:14:16.844Z,101188.53
2022-08-11T00:16:46.432Z,101181.41
2022-08-11T00:19:14.152Z,101182.41
2022-08-11T00:22:04.115Z,101177.28
2022-08-11T00:24:53.357Z,101176.28
2022-08-11T00:27:34.858Z,101173.84
2022-08-11T00:30:02.820Z,101171.28
2022-08-11T00:32:30.550Z,101166.84
2022-08-11T00:35:56.095Z,101165.75
2022-08-11T00:37:46.817Z,101182.38
2022-08-11T00:40:19.979Z,101154.50
2022-08-11T00:42:53.037Z,101165.59
2022-08-11T00:45:23.932Z,101174.69
2022-08-11T00:48:00.455Z,101175.69
2022-08-11T00:50:31.193Z,101174.97
2022-08-11T00:53:24.546Z,101164.56
2022-08-11T00:56:33.114Z,101171.56
2022-08-11T00:59:39.126Z,101176.25
2022-08-11T01:02:19.169Z,101138.91
2022-08-11T01:05:06.220Z,101175.78
2022-08-11T01:08:18.348Z,101183.88
2022-08-11T01:10:52.766Z,101181.44
2022-08-11T01:13:36.128Z,101184.16
2022-08-11T01:16:13.220Z,101175.34
2022-08-11T01:19:32.977Z,101178.19
2022-08-11T01:22:46.772Z,101181.19
2022-08-11T01:25:57.511Z,101157.38
2022-08-11T01:29:03.044Z,101182.28
2022-08-11T01:32:11.430Z,101184.28
2022-08-11T01:35:14.133Z,101187.97
2022-08-11T01:38:14.495Z,101189.09
2022-08-11T01:40:53.225Z,101191.06
2022-08-11T01:44:01.193Z,101189.25
2022-08-11T01:46:31.118Z,101152.59
2022-08-11T01:49:02.262Z,101188.09
2022-08-11T01:52:04.697Z,101120.88
2022-08-11T01:54:33.695Z,101145.59
2022-08-11T01:57:10.413Z,101155.03
2022-08-11T01:59:48.698Z,101190.19
2022-08-11T02:02:44.443Z,101176.97
2022-08-11T02:05:19.561Z,101178.09
2022-08-11T02:07:56.219Z,101189.59
2022-08-11T02:10:50.776Z,101183.50
2022-08-11T02:13:35.404Z,101175.50
2022-08-11T02:16:14.800Z,101183.78
2022-08-11T02:19:09.550Z,101188.44
2022-08-11T02:22:00.593Z,101194.84
2022-08-11T02:24:31.125Z,101142.06
2022-08-11T02:27:01.492Z,101189.72
2022-08-11T02:29:33.554Z,101189.13
2022-08-11T02:32:30.556Z,101154.06
2022-08-11T02:35:05.477Z,101193.09
2022-08-11T02:37:40.267Z,101149.06
2022-08-11T02:40:21.661Z,101188.53
2022-08-11T02:43:02.942Z,101163.25
2022-08-11T02:45:35.826Z,101140.31
2022-08-11T02:48:23.093Z,101193.66
2022-08-11T02:50:53.434Z,101163.38
2022-08-11T02:53:25.107Z,101190.34
2022-08-11T02:55:59.602Z,101191.22
2022-08-11T02:58:35.546Z,101197.59
2022-08-11T03:01:11.735Z,101184.19
2022-08-11T03:03:45.613Z,101183.47
2022-08-11T03:06:15.977Z,101184.44
2022-08-11T03:08:52.536Z,101159.94
2022-08-11T03:11:44.912Z,101179.44
2022-08-11T03:14:34.034Z,101190.25
2022-08-11T03:17:06.769Z,101193.94
2022-08-11T03:19:38.239Z,101192.25
2022-08-11T03:22:14.580Z,101192.38
2022-08-11T03:24:50.528Z,101159.91
2022-08-11T03:27:30.065Z,101150.59
2022-08-11T03:30:04.208Z,101185.09
2022-08-11T03:32:33.973Z,101108.59
2022-08-11T03:35:01.442Z,101190.34
2022-08-11T03:37:50.505Z,101190.50
2022-08-11T03:40:52.395Z,101192.44
2022-08-11T03:43:30.481Z,101164.63
2022-08-11T03:46:02.925Z,101193.72
2022-08-11T03:48:33.633Z,101189.28
2022-08-11T03:51:09.117Z,101191.97
2022-08-11T03:53:57.256Z,101195.69
2022-08-11T03:57:03.402Z,101193.25
2022-08-11T03:59:57.570Z,101193.38
2022-08-11T04:02:35.163Z,101198.06
2022-08-11T04:05:39.790Z,101199.03
2022-08-11T04:08:27.065Z,101206.31
2022-08-11T04:11:36.271Z,101206.56
2022-08-11T04:14:46.696Z,101203.00
2022-08-11T04:17:33.495Z,101200.44
2022-08-11T04:20:46.322Z,101188.72
2022-08-11T04:24:13.078Z,101201.69
2022-08-11T04:26:37.273Z,101199.97
2022-08-11T04:29:14.160Z,101199.25
2022-08-11T04:31:51.499Z,101194.81
2022-08-11T04:34:43.027Z,101196.81
2022-08-11T04:37:36.173Z,101189.81
2022-08-11T04:40:33.845Z,101197.22
2022-08-11T04:43:25.903Z,101198.19
2022-08-11T04:46:13.512Z,101196.59
2022-08-11T04:49:12.220Z,101174.84
2022-08-11T04:52:35.988Z,101193.31
2022-08-11T04:55:38.992Z,101197.34
2022-08-11T04:58:31.689Z,101189.91
2022-08-11T05:01:22.538Z,101194.97
2022-08-11T05:04:44.468Z,101184.69
2022-08-11T05:07:32.425Z,101189.03
2022-08-11T05:10:09.274Z,101135.44
2022-08-11T05:12:38.089Z,101187.72
2022-08-11T05:15:23.999Z,101193.09
2022-08-11T05:18:12.921Z,101189.03
2022-08-11T05:21:05.180Z,101136.94
2022-08-11T05:23:53.126Z,101195.56
2022-08-11T05:26:47.077Z,101193.00
2022-08-11T05:29:55.027Z,101200.22
2022-08-11T05:32:40.290Z,101202.06
2022-08-11T05:35:08.632Z,101198.50
2022-08-11T05:37:42.339Z,101172.22
2022-08-11T05:40:30.707Z,101176.38
2022-08-11T05:43:17.519Z,101195.31
2022-08-11T05:46:05.402Z,101189.41
2022-08-11T05:48:53.398Z,101140.84
2022-08-11T05:51:38.618Z,101142.16
2022-08-11T05:54:29.250Z,101191.56
2022-08-11T05:56:59.884Z,101183.09
2022-08-11T05:59:28.444Z,101115.34
2022-08-11T06:02:01.515Z,101186.56
2022-08-11T06:04:29.502Z,101193.44
2022-08-11T06:06:58.073Z,101182.38
2022-08-11T06:09:28.126Z,101184.13
2022-08-11T06:11:57.113Z,101191.47
2022-08-11T06:14:26.219Z,101183.38
2022-08-11T06:16:57.665Z,101153.53
2022-08-11T06:19:31.153Z,101187.66
2022-08-11T06:21:59.714Z,101185.81
2022-08-11T06:24:29.268Z,101162.28
2022-08-11T06:27:13.644Z,101188.38
2022-08-11T06:29:54.996Z,101124.28
2022-08-11T06:32:25.458Z,101190.69
2022-08-11T06:35:09.879Z,101180.50
2022-08-11T06:37:43.582Z,101183.78
2022-08-11T06:40:21.672Z,101182.81
2022-08-11T06:42:53.173Z,101184.38
2022-08-11T06:45:31.902Z,101177.28
2022-08-11T06:48:00.785Z,101175.16
2022-08-11T06:50:46.317Z,101178.59
2022-08-11T06:53:14.058Z,101179.44
2022-08-11T06:56:00.510Z,101176.63
2022-08-11T06:58:47.746Z,101184.59
2022-08-11T07:01:20.132Z,101134.31
2022-08-11T07:03:49.705Z,101096.53
2022-08-11T07:06:24.021Z,101174.81
2022-08-11T07:09:35.457Z,101171.72
2022-08-11T07:12:28.853Z,101165.28
2022-08-11T07:15:14.682Z,101161.72
2022-08-11T07:17:49.539Z,101170.59
2022-08-11T07:20:35.393Z,101173.28
2022-08-11T07:23:21.067Z,101165.06
2022-08-11T07:26:08.890Z,101169.72
2022-08-11T07:28:54.039Z,101169.06
2022-08-11T07:31:32.565Z,101165.38
2022-08-11T07:34:11.142Z,101166.81
2022-08-11T07:36:41.649Z,101169.38
2022-08-11T07:39:09.987Z,101172.69
2022-08-11T07:41:37.739Z,101175.16
2022-08-11T07:44:09.930Z,101165.91
2022-08-11T07:46:57.689Z,101164.78
2022-08-11T07:49:44.390Z,101162.81
2022-08-11T07:52:30.659Z,101159.97
2022-08-11T07:55:00.018Z,101163.97
2022-08-11T07:58:10.254Z,101164.56
2022-08-11T08:00:54.434Z,101165.16
2022-08-11T08:03:39.683Z,101156.78
2022-08-11T08:06:40.729Z,101160.31
2022-08-11T08:09:25.946Z,101167.28
2022-08-11T08:12:11.061Z,101160.88
2022-08-11T08:14:56.565Z,101158.66
2022-08-11T08:17:42.054Z,101120.06
2022-08-11T08:20:12.047Z,101110.09
2022-08-11T08:22:42.875Z,101155.94
2022-08-11T08:25:15.048Z,101146.41
2022-08-11T08:27:43.653Z,101157.00
2022-08-11T08:30:30.084Z,101157.41
2022-08-11T08:32:59.105Z,101118.69
2022-08-11T08:35:32.507Z,101147.78
2022-08-11T08:38:02.039Z,101155.50
2022-08-11T08:40:29.780Z,101151.78
2022-08-11T08:42:58.424Z,101127.97
2022-08-11T08:45:27.364Z,101103.34
2022-08-11T08:48:00.192Z,101146.53
2022-08-11T08:50:48.692Z,101086.28
2022-08-11T08:53:24.249Z,101080.56
2022-08-11T08:55:52.042Z,101137.44
2022-08-11T08:58:20.761Z,101089.28
2022-08-11T09:00:48.538Z,101141.56
2022-08-11T09:03:40.983Z,101144.72
2022-08-11T09:06:04.050Z,101075.50
2022-08-11T09:08:33.901Z,101142.69
2022-08-11T09:11:19.597Z,101083.19
2022-08-11T09:14:04.927Z,101126.03
2022-08-11T09:16:35.464Z,101122.50
2022-08-11T09:19:03.181Z,101086.06
2022-08-11T09:21:49.268Z,101132.19
2022-08-11T09:24:36.783Z,101125.63
2022-08-11T09:27:07.019Z,101115.66
2022-08-11T09:29:34.754Z,101119.94
2022-08-11T09:32:02.504Z,101122.50
2022-08-11T09:34:30.216Z,101094.41
2022-08-11T09:37:28.405Z,101117.03
2022-08-11T09:40:37.697Z,101105.66
2022-08-11T09:43:24.548Z,101121.44
2022-08-11T09:45:53.052Z,101079.50
2022-08-11T09:48:20.879Z,101110.09
2022-08-11T09:50:49.853Z,101110.09
2022-08-11T09:53:35.873Z,101113.09
2022-08-11T09:56:21.280Z,101106.50
2022-08-11T09:58:49.061Z,101107.38
2022-08-11T10:01:27.518Z,100995.53
2022-08-11T10:03:58.784Z,101035.63
2022-08-11T10:06:44.672Z,101047.59
2022-08-11T10:09:17.446Z,101095.69
2022-08-11T10:11:57.782Z,101090.41
2022-08-11T10:14:44.822Z,101027.69
2022-08-11T10:17:12.745Z,101093.84
2022-08-11T10:19:40.817Z,101030.66
2022-08-11T10:22:26.944Z,101090.84
2022-08-11T10:25:13.537Z,101086.41
2022-08-11T10:28:18.508Z,101083.41
2022-08-11T10:30:49.279Z,101077.84
2022-08-11T10:33:36.739Z,101069.19
2022-08-11T10:36:15.974Z,101081.41
2022-08-11T10:38:45.879Z,101068.03
2022-08-11T10:41:27.969Z,101072.28
2022-08-11T10:44:03.505Z,101032.50
2022-08-11T10:46:49.217Z,101066.72
2022-08-11T10:49:16.938Z,101063.88
2022-08-11T10:52:02.366Z,101064.88
2022-08-11T10:54:47.607Z,101052.91
2022-08-11T10:57:32.728Z,101001.88
2022-08-11T11:00:01.842Z,101051.47
2022-08-11T11:02:29.589Z,100988.34
2022-08-11T11:05:02.701Z,101048.63
2022-08-11T11:07:37.931Z,101045.03
2022-08-11T11:10:12.023Z,101044.03
2022-08-11T11:12:58.592Z,101041.63
2022-08-11T11:15:45.572Z,101019.75
2022-08-11T11:18:15.600Z,101039.47
2022-08-11T11:20:47.367Z,101031.38
2022-08-11T11:23:17.773Z,101025.94
2022-08-11T11:26:28.716Z,101027.50
2022-08-11T11:29:25.665Z,101031.22
2022-08-11T11:32:03.273Z,100961.00
2022-08-11T11:34:48.009Z,101015.97
2022-08-11T11:37:22.105Z,101024.78
2022-08-11T11:39:49.862Z,101025.66
2022-08-11T11:42:17.624Z,101017.53
2022-08-11T11:44:45.706Z,101013.81
2022-08-11T11:47:14.846Z,101018.25
2022-08-11T11:49:44.055Z,101009.25
2022-08-11T11:52:15.149Z,100998.88
2022-08-11T11:54:42.899Z,101015.69
2022-08-11T11:57:24.548Z,101009.81
2022-08-11T12:00:10.310Z,101010.66
2022-08-11T12:02:39.362Z,101005.38
2022-08-11T12:05:07.578Z,101008.66
2022-08-11T12:08:04.987Z,101007.63
2022-08-11T12:10:40.975Z,101000.53
2022-08-11T12:13:26.165Z,100997.66
2022-08-11T12:16:04.362Z,100997.53
2022-08-11T12:18:43.526Z,100983.97
2022-08-11T12:21:11.271Z,100982.00
2022-08-11T12:23:59.941Z,100914.22
2022-08-11T12:26:54.275Z,100956.72
2022-08-11T12:29:43.785Z,100902.00
2022-08-11T12:32:11.735Z,100969.28
2022-08-11T12:37:13.224Z,100968.84
2022-08-11T12:40:15.601Z,100915.84
2022-08-11T12:43:08.806Z,100958.72
2022-08-11T12:45:50.284Z,100956.72
2022-08-11T12:48:57.456Z,100962.00
2022-08-11T12:52:12.371Z,100933.09
2022-08-11T12:54:34.488Z,100882.38
2022-08-11T12:57:36.180Z,100952.56
2022-08-11T13:00:24.168Z,100937.16
2022-08-11T13:03:09.454Z,100940.69
2022-08-11T13:05:41.367Z,100928.88
2022-08-11T13:08:13.938Z,100934.97
2022-08-11T13:11:00.895Z,100898.88
2022-08-11T13:13:54.623Z,100928.41
2022-08-11T13:16:16.702Z,100860.81
2022-08-11T13:18:44.449Z,100923.38
2022-08-11T13:21:12.232Z,100923.22
2022-08-11T13:23:59.649Z,100896.28
2022-08-11T13:26:43.521Z,100921.06
2022-08-11T13:29:22.017Z,100920.03
2022-08-11T13:31:49.811Z,100918.03
2022-08-11T13:34:17.760Z,100906.44
2022-08-11T13:36:45.887Z,100916.88
2022-08-11T13:39:13.747Z,100913.00
2022-08-11T13:41:44.162Z,100909.28
2022-08-11T13:44:15.904Z,100915.41
2022-08-11T13:46:45.178Z,100911.38
2022-08-11T13:49:12.873Z,100903.91
2022-08-11T13:51:40.602Z,100901.06
2022-08-11T13:54:09.193Z,100829.28
2022-08-11T13:56:39.763Z,100823.00
2022-08-11T13:59:09.207Z,100860.84
2022-08-11T14:02:20.771Z,100847.91
2022-08-11T14:04:32.273Z,100894.53
2022-08-11T14:07:00.904Z,100893.78
2022-08-11T14:09:29.560Z,100848.50
2022-08-11T14:12:22.097Z,100888.91
2022-08-11T14:14:57.076Z,100881.47
2022-08-11T14:17:47.176Z,100876.72
2022-08-11T14:20:35.386Z,100881.81
2022-08-11T14:22:59.380Z,100874.38
2022-08-11T14:25:59.771Z,100880.19
2022-08-11T14:28:29.395Z,100877.16
2022-08-11T14:31:04.602Z,100877.69
2022-08-11T14:33:58.062Z,100870.09
2022-08-11T14:36:20.197Z,100880.28
2022-08-11T14:38:47.901Z,100864.88
2022-08-11T14:41:33.370Z,100868.09
2022-08-11T14:44:18.562Z,100868.63
2022-08-11T14:47:01.565Z,100867.44
2022-08-11T14:49:29.523Z,100860.72
2022-08-11T14:51:57.713Z,100867.50
2022-08-11T14:54:43.621Z,100861.91
2022-08-11T14:57:11.366Z,100850.78
2022-08-11T14:59:39.082Z,100854.84
2022-08-11T15:02:26.450Z,100850.66
2022-08-11T15:04:56.120Z,100786.72
2022-08-11T15:07:29.878Z,100798.28
2022-08-11T15:10:14.041Z,100850.66
2022-08-11T15:12:42.996Z,100850.34
2022-08-11T15:15:28.747Z,100848.31
2022-08-11T15:17:59.697Z,100850.72
2022-08-11T15:20:46.160Z,100851.41
2022-08-11T15:23:31.475Z,100772.50
2022-08-11T15:26:00.842Z,100796.88
2022-08-11T15:28:47.030Z,100806.59
2022-08-11T15:31:32.864Z,100830.38
2022-08-11T15:34:21.238Z,100823.75
2022-08-11T15:37:07.149Z,100833.47
2022-08-11T15:39:36.887Z,100777.06
2022-08-11T15:42:23.113Z,100833.13
2022-08-11T15:45:10.443Z,100826.50
2022-08-11T15:47:41.389Z,100764.53
2022-08-11T15:50:13.760Z,100739.22
2022-08-11T15:52:47.624Z,100822.50
2022-08-11T15:55:15.338Z,100817.91
2022-08-11T15:58:00.497Z,100815.53
2022-08-11T16:00:45.674Z,100818.78
2022-08-11T16:04:06.706Z,100818.44
2022-08-11T16:06:19.828Z,100768.47
2022-08-11T16:08:50.790Z,100802.97
2022-08-11T16:11:18.912Z,100797.22
2022-08-11T16:14:04.073Z,100803.34
2022-08-11T16:16:34.076Z,100804.69
2022-08-11T16:19:01.795Z,100733.53
2022-08-11T16:21:35.717Z,100784.50
2022-08-11T16:24:05.889Z,100770.91
2022-08-11T16:27:09.236Z,100794.84
2022-08-11T16:29:21.665Z,100736.94
2022-08-11T16:32:09.405Z,100799.44
2022-08-11T16:34:54.822Z,100799.09
2022-08-11T16:37:41.240Z,100796.03
2022-08-11T16:40:10.301Z,100783.97
2022-08-11T16:43:04.502Z,100791.63
2022-08-11T16:45:56.945Z,100704.88
2022-08-11T16:48:35.376Z,100789.44
2022-08-11T16:51:06.123Z,100791.28
2022-08-11T16:53:48.933Z,100788.41
2022-08-11T16:56:24.419Z,100784.81
2022-08-11T16:59:12.269Z,100781.94
2022-08-11T17:01:40.143Z,100781.75
2022-08-11T17:04:26.812Z,100753.91
2022-08-11T17:07:23.917Z,100781.59
2022-08-11T17:10:38.231Z,100783.47
2022-08-11T17:13:12.950Z,100785.16
2022-08-11T17:16:00.606Z,100791.28
2022-08-11T17:18:43.983Z,100792.28
2022-08-11T17:21:17.021Z,100783.97
2022-08-11T17:23:50.384Z,100785.69
2022-08-11T17:26:22.438Z,100785.31
2022-08-11T17:28:52.391Z,100780.72
2022-08-11T17:31:39.076Z,100774.63
2022-08-11T17:34:25.155Z,100718.44
2022-08-11T17:36:53.761Z,100774.75
2022-08-11T17:39:21.924Z,100780.03
2022-08-11T17:42:08.600Z,100728.25
2022-08-11T17:44:53.951Z,100724.16
2022-08-11T17:47:41.311Z,100774.06
2022-08-11T17:50:17.252Z,100767.97
2022-08-11T17:53:03.733Z,100778.16
2022-08-11T17:55:52.731Z,100780.53
2022-08-11T17:58:39.679Z,100727.75
2022-08-11T18:01:09.379Z,100781.28
2022-08-11T18:03:39.711Z,100790.78
2022-08-11T18:06:12.355Z,100786.00
2022-08-11T18:08:59.540Z,100794.81
2022-08-11T18:12:10.608Z,100791.78
2022-08-11T18:14:52.050Z,100571.75
2022-08-11T18:17:37.160Z,100792.28
2022-08-11T18:20:22.904Z,100792.81
2022-08-11T18:23:08.064Z,100799.59
2022-08-11T18:25:57.397Z,100799.25
2022-08-11T18:28:43.426Z,100800.63
2022-08-11T18:31:31.744Z,100726.03
2022-08-11T18:36:38.955Z,100795.97
2022-08-11T18:39:25.097Z,100805.31
2022-08-11T18:42:10.415Z,100801.03
2022-08-11T18:44:55.416Z,100799.69
2022-08-11T18:47:42.289Z,100806.31
2022-08-11T18:50:39.516Z,100787.94
2022-08-11T18:53:25.142Z,100752.94
2022-08-11T18:56:10.251Z,100762.44
2022-08-11T18:58:55.672Z,100767.53
2022-08-11T19:01:45.538Z,100801.16
2022-08-11T19:04:32.852Z,100803.22
2022-08-11T19:07:23.256Z,100803.53
2022-08-11T19:10:08.552Z,100769.31
2022-08-11T19:12:55.682Z,100811.47
2022-08-11T19:15:40.901Z,100822.50
2022-08-11T19:18:26.411Z,100792.19
2022-08-11T19:21:12.948Z,100821.47
2022-08-11T19:24:01.514Z,100790.09
2022-08-11T19:26:46.976Z,100789.44
2022-08-11T19:30:07.703Z,100826.97
2022-08-11T19:32:41.409Z,100836.63
2022-08-11T19:35:26.553Z,100838.47
2022-08-11T19:38:13.062Z,100834.22
2022-08-11T19:40:58.388Z,100842.53
2022-08-11T19:43:44.050Z,100839.13
2022-08-11T19:46:29.534Z,100834.03
2022-08-11T19:49:15.696Z,100779.94
2022-08-11T19:52:00.978Z,100781.81
2022-08-11T19:54:49.577Z,100794.19
2022-08-11T19:57:39.321Z,100838.72
2022-08-11T20:00:30.123Z,100827.28
2022-08-11T20:03:15.748Z,100839.38
2022-08-11T20:06:00.865Z,100839.53
2022-08-11T20:08:46.301Z,100821.13
2022-08-11T20:11:32.993Z,100831.88
2022-08-11T20:14:18.063Z,100839.16
2022-08-11T20:17:03.130Z,100834.03
2022-08-11T20:19:55.551Z,100843.19
2022-08-11T20:22:42.776Z,100843.53
2022-08-11T20:25:27.981Z,100828.50
2022-08-11T20:28:14.609Z,100843.84
2022-08-11T20:31:00.283Z,100844.16
2022-08-11T20:33:45.380Z,100835.94
2022-08-11T20:36:31.073Z,100836.56
2022-08-11T20:39:16.286Z,100819.00
2022-08-11T20:42:01.528Z,100853.06
2022-08-11T20:44:48.132Z,100849.78
2022-08-11T20:47:58.882Z,100855.22
2022-08-11T20:50:40.233Z,100851.81
2022-08-11T20:53:25.959Z,100859.09
2022-08-11T20:56:12.778Z,100859.41
2022-08-11T20:59:14.362Z,100864.84
2022-08-11T21:02:05.323Z,100862.44
2022-08-11T21:04:56.657Z,100861.91
2022-08-11T21:07:42.622Z,100869.00
2022-08-11T21:10:28.650Z,100865.63
2022-08-11T21:13:25.250Z,100826.44
2022-08-11T21:16:25.208Z,100840.16
2022-08-11T21:19:14.091Z,100869.81
2022-08-11T21:21:59.300Z,100873.34
2022-08-11T21:24:48.016Z,100875.41
2022-08-11T21:27:34.067Z,100869.28
2022-08-11T21:30:19.738Z,100867.75
2022-08-11T21:33:05.203Z,100865.19
2022-08-11T21:35:51.822Z,100865.34
2022-08-11T21:38:36.924Z,100864.47
2022-08-11T21:41:22.404Z,100867.50
2022-08-11T21:44:08.545Z,100861.38
2022-08-11T21:46:54.108Z,100812.31
2022-08-11T21:49:39.661Z,100871.53
2022-08-11T21:52:26.358Z,100865.25
2022-08-11T21:55:11.560Z,100866.28
2022-08-11T21:57:58.880Z,100867.25
2022-08-11T22:00:43.937Z,100830.97
2022-08-11T22:03:29.209Z,100870.44
2022-08-11T22:06:15.788Z,100870.44
2022-08-11T22:09:02.544Z,100871.44
2022-08-11T22:11:47.684Z,100873.31
2022-08-11T22:14:32.702Z,100831.03
2022-08-11T22:17:17.942Z,100878.88
2022-08-11T22:20:03.078Z,100873.59
2022-08-11T22:22:52.980Z,100882.75
2022-08-11T22:25:44.137Z,100872.94
2022-08-11T22:28:37.583Z,100874.06
2022-08-11T22:31:22.845Z,100874.94
2022-08-11T22:34:08.103Z,100880.47
2022-08-11T22:36:53.490Z,100875.22
2022-08-11T22:39:38.864Z,100878.06
2022-08-11T22:42:43.468Z,100883.63
2022-08-11T22:45:28.917Z,100874.81
2022-08-11T22:48:14.254Z,100889.50
2022-08-11T22:50:59.424Z,100881.41
2022-08-11T22:53:57.892Z,100880.53
2022-08-11T22:56:44.125Z,100832.00
2022-08-11T22:59:30.675Z,100877.28
2022-08-11T23:02:15.905Z,100873.03
2022-08-11T23:05:01.322Z,100871.31
2022-08-11T23:07:50.001Z,100878.91
2022-08-11T23:10:36.888Z,100814.06
2022-08-11T23:13:22.541Z,100871.78
2022-08-11T23:16:09.453Z,100877.19
2022-08-11T23:18:54.797Z,100871.94
2022-08-11T23:21:40.638Z,100869.38
2022-08-11T23:24:26.025Z,100866.97
2022-08-11T23:27:11.197Z,100867.13
2022-08-11T23:29:56.481Z,100868.16
2022-08-11T23:32:43.540Z,100861.00
2022-08-11T23:35:40.094Z,100866.56
2022-08-11T23:38:34.387Z,100856.78
2022-08-11T23:41:19.728Z,100862.34
2022-08-11T23:44:04.833Z,100858.91
2022-08-11T23:46:50.142Z,100859.06
2022-08-11T23:49:37.091Z,100806.97
2022-08-11T23:52:23.031Z,100853.97
2022-08-11T23:55:08.255Z,100853.28
2022-08-11T23:57:53.831Z,100809.28
